Abercrombie, North Dakota
Current Conditions -  °F | °C
As of 2:35 PM on Monday 22 Dec 2014 (Local Time) from KBWP Reporting Station
Overcast Overcast  
Wind Chill: -2°   Ceiling: 700
Heat Index:   Visibility: 4mi
Dew Point:   Wind: 10mph
Humidity: 93%   Direction: 110°ESE
Pressure: 29.49"   Gusts: NA
Location:  46.45°N, 96.73°W
Report Text: KBWP 222035Z AUTO 11009KT 4SM OVC007 02/01 A2949 RMK AO1
Loading
Personal Weather Stations






























Interactive Weather Map New forecast layout! Learn more

10-Day Weather Forecast

Advertisements
Track Severe Weather on mobile